Time;durP1;ratioP1;P1;durP2;ratioP2;P2;SDS_P1;SDS_P2;PMS_P1;PMS_P2;Temp;Humidity;BMP_temperature;BMP_pressure;BME280_temperature;BME280_humidity;BME280_pressure;Samples;Min_cycle;Max_cycle;Signal;HPM_P1;HPM_P2
2023/02/28 00:00:39;;;;;;;28.93;15.83;;;;;;;1.87;91.60;101637.47;124298;1106;102177;-79
2023/02/28 00:03:21;;;;;;;30.77;16.27;;;;;;;1.88;91.53;101640.20;124264;1105;101814;-79
2023/02/28 00:05:52;;;;;;;29.63;15.17;;;;;;;1.90;91.91;101648.09;124269;1105;104270;-79
2023/02/28 00:08:24;;;;;;;32.63;16.77;;;;;;;1.88;91.69;101637.61;124359;1105;102086;-80
2023/02/28 00:10:55;;;;;;;32.87;16.87;;;;;;;1.89;91.50;101646.30;124341;1105;104223;-80
2023/02/28 00:13:26;;;;;;;36.20;17.63;;;;;;;1.86;91.36;101651.21;124397;1105;101842;-79
2023/02/28 00:16:06;;;;;;;31.50;17.17;;;;;;;1.83;91.62;101650.94;124359;1105;101894;-80
2023/02/28 00:18:37;;;;;;;31.50;15.90;;;;;;;1.82;91.31;101650.01;124300;1105;104313;-80
2023/02/28 00:21:10;;;;;;;33.13;17.07;;;;;;;1.86;91.51;101651.21;124205;1108;104363;-79
2023/02/28 00:23:41;;;;;;;34.87;17.90;;;;;;;1.85;91.78;101651.97;124355;1105;102048;-79
2023/02/28 00:26:12;;;;;;;34.27;18.63;;;;;;;1.89;91.55;101665.32;124270;1105;101983;-80
2023/02/28 00:28:44;;;;;;;36.50;18.17;;;;;;;1.92;91.37;101672.47;124260;1109;104258;-80
2023/02/28 00:31:15;;;;;;;35.00;18.07;;;;;;;1.93;91.58;101667.42;124229;1105;102038;-80
2023/02/28 00:33:47;;;;;;;33.93;17.87;;;;;;;1.96;91.55;101666.77;124204;1106;104332;-79
2023/02/28 00:36:19;;;;;;;34.10;18.60;;;;;;;1.96;91.63;101675.47;124205;1105;104217;-79
2023/02/28 00:38:50;;;;;;;35.20;18.40;;;;;;;1.96;91.99;101679.71;124362;1105;104139;-79
2023/02/28 00:41:22;;;;;;;31.90;16.57;;;;;;;1.95;91.56;101678.81;124302;1105;104211;-80
2023/02/28 00:43:53;;;;;;;36.33;18.50;;;;;;;1.94;91.21;101681.27;124230;1105;102258;-80
2023/02/28 00:46:24;;;;;;;33.77;18.33;;;;;;;1.92;91.12;101686.30;124237;1103;102181;-80
2023/02/28 00:48:56;;;;;;;37.13;18.87;;;;;;;1.94;91.50;101694.20;124374;1105;101951;-80
2023/02/28 00:51:27;;;;;;;33.37;17.87;;;;;;;1.91;91.32;101697.42;125089;1105;101887;-81
2023/02/28 00:53:58;;;;;;;33.43;17.80;;;;;;;1.89;91.10;101698.97;124307;1105;102047;-79
2023/02/28 00:56:29;;;;;;;33.53;18.00;;;;;;;1.86;91.66;101698.70;124315;1105;101990;-80
2023/02/28 00:59:01;;;;;;;33.90;18.03;;;;;;;1.84;91.53;101699.32;124296;1105;104208;-80
2023/02/28 01:01:32;;;;;;;34.83;18.57;;;;;;;1.82;91.11;101696.59;124388;1105;104290;-79
2023/02/28 01:04:04;;;;;;;31.70;16.67;;;;;;;1.81;90.41;101697.39;124327;1105;104345;-80
2023/02/28 01:06:35;;;;;;;31.03;17.47;;;;;;;1.79;90.78;101697.25;125119;1105;101910;-80
2023/02/28 01:09:08;;;;;;;31.90;17.83;;;;;;;1.77;90.82;101695.28;124365;1105;102206;-80
2023/02/28 01:11:41;;;;;;;34.40;17.17;;;;;;;1.75;91.42;101695.14;124374;1105;101785;-80
2023/02/28 01:14:15;;;;;;;39.30;18.17;;;;;;;1.72;91.44;101694.86;124316;1105;102674;-81
2023/02/28 01:16:47;;;;;;;35.30;19.30;;;;;;;1.75;91.08;101695.14;124368;1105;102360;-80
2023/02/28 01:19:20;;;;;;;31.50;17.65;;;;;;;1.72;90.90;101697.45;125325;1105;102103;-80
2023/02/28 01:21:52;;;;;;;32.98;18.60;;;;;;;1.71;90.56;101698.21;124309;1105;102077;-81
2023/02/28 01:24:23;;;;;;;34.97;17.90;;;;;;;1.72;91.23;101702.62;124348;1104;102063;-80
2023/02/28 01:26:54;;;;;;;33.07;17.73;;;;;;;1.73;90.94;101703.53;124257;1105;104230;-80
2023/02/28 01:29:28;;;;;;;32.33;17.73;;;;;;;1.73;91.24;101704.46;124294;1105;104198;-79
2023/02/28 01:32:00;;;;;;;35.63;18.07;;;;;;;1.72;90.63;101705.22;124249;1107;104259;-79
2023/02/28 01:34:31;;;;;;;33.80;17.90;;;;;;;1.74;91.06;101711.43;124296;1105;101998;-79
2023/02/28 01:37:03;;;;;;;32.55;17.60;;;;;;;1.76;91.17;101717.67;124344;1105;103070;-79
2023/02/28 01:39:34;;;;;;;35.00;19.33;;;;;;;1.78;90.85;101721.30;124285;1105;104082;-80
2023/02/28 01:42:06;;;;;;;33.70;17.63;;;;;;;1.78;91.35;101710.05;124811;1105;101919;-79
2023/02/28 01:44:58;;;;;;;34.37;18.30;;;;;;;1.76;90.79;101707.33;124210;1105;104239;-80
2023/02/28 01:47:34;;;;;;;34.60;17.97;;;;;;;1.77;90.69;101716.88;125648;1105;101926;-80
2023/02/28 01:50:10;;;;;;;33.63;18.03;;;;;;;1.78;91.18;101721.30;124309;1105;102077;-79
2023/02/28 01:52:43;;;;;;;36.43;19.07;;;;;;;1.78;91.43;101713.53;124640;1105;104246;-80
2023/02/28 01:55:15;;;;;;;37.87;19.97;;;;;;;1.82;91.39;101711.22;124322;1105;101824;-79
2023/02/28 01:57:49;;;;;;;36.37;19.93;;;;;;;1.84;90.63;101717.44;124494;1109;101953;-80
2023/02/28 02:00:24;;;;;;;38.17;19.93;;;;;;;1.81;91.02;101707.74;124333;1104;101970;-80
2023/02/28 02:02:58;;;;;;;38.83;21.17;;;;;;;1.80;90.62;101711.98;124304;1105;101944;-80
2023/02/28 02:05:30;;;;;;;;;;;;;;;1.77;91.20;101709.13;124315;1105;104294;-79
2023/02/28 02:08:06;;;;;;;38.60;21.10;;;;;;;1.75;91.27;101713.27;124698;1105;104198;-81
2023/02/28 02:10:41;;;;;;;37.90;19.83;;;;;;;1.75;90.82;101723.61;124695;1105;104262;-80
2023/02/28 02:13:26;;;;;;;40.00;20.30;;;;;;;1.74;91.00;101721.78;124227;1106;104347;-80
2023/02/28 02:16:11;;;;;;;41.50;22.57;;;;;;;1.72;90.98;101727.61;124535;1105;102388;-80
2023/02/28 02:18:48;;;;;;;41.27;20.30;;;;;;;1.69;90.75;101725.64;124241;1109;102048;-81
2023/02/28 02:21:46;;;;;;;40.83;21.47;;;;;;;1.68;91.32;101731.58;124342;1105;104188;-80
2023/02/28 02:24:47;;;;;;;41.10;21.17;;;;;;;1.67;90.77;101734.95;124346;1105;101916;-80
2023/02/28 02:27:34;;;;;;;39.73;20.87;;;;;;;1.65;90.65;101743.34;124175;1108;118648;-81
2023/02/28 02:30:45;;;;;;;40.07;21.07;;;;;;;1.61;90.90;101740.47;125469;1105;101699;-80
2023/02/28 02:33:53;;;;;;;34.57;18.57;;;;;;;1.59;91.27;101739.43;124305;1105;104195;-79
2023/02/28 02:36:28;;;;;;;34.73;18.13;;;;;;;1.57;91.04;101738.39;124976;1105;102388;-79
2023/02/28 02:39:05;;;;;;;36.17;20.20;;;;;;;1.57;90.24;101740.05;125041;1105;104150;-80
2023/02/28 02:41:41;;;;;;;35.73;18.07;;;;;;;1.55;90.94;101733.83;124491;1105;104415;-80
2023/02/28 02:44:22;;;;;;;32.15;17.35;;;;;;;1.53;90.88;101723.34;124364;1105;102000;-80
2023/02/28 02:46:59;;;;;;;37.23;19.23;;;;;;;1.53;90.93;101732.80;124334;1109;104307;-80
2023/02/28 02:49:36;;;;;;;36.07;18.00;;;;;;;1.51;90.52;101722.31;125332;1105;104252;-80
2023/02/28 02:52:12;;;;;;;33.47;17.73;;;;;;;1.48;90.67;101724.61;124401;1105;102128;-79
2023/02/28 02:54:45;;;;;;;34.73;19.17;;;;;;;1.49;90.77;101725.51;124202;1105;102167;-80
2023/02/28 02:57:21;;;;;;;35.35;18.32;;;;;;;1.49;90.96;101718.65;124484;1105;104185;-80
2023/02/28 02:59:55;;;;;;;33.77;17.77;;;;;;;1.49;90.15;101715.16;124356;1109;104204;-80
2023/02/28 03:02:34;;;;;;;34.00;17.57;;;;;;;1.48;90.53;101714.27;124242;1106;102041;-80
2023/02/28 03:05:13;;;;;;;33.37;18.03;;;;;;;1.49;90.87;101720.34;124357;1105;104188;-80
2023/02/28 03:07:45;;;;;;;33.33;18.43;;;;;;;1.48;90.88;101732.38;124318;1106;104303;-80
2023/02/28 03:10:33;;;;;;;32.90;17.83;;;;;;;1.47;90.46;101727.95;124320;1109;104294;-80
2023/02/28 03:13:15;;;;;;;37.07;19.10;;;;;;;1.47;90.14;101732.23;124315;1106;101922;-80
2023/02/28 03:15:59;;;;;;;36.90;20.57;;;;;;;1.45;90.53;101739.85;124781;1109;104274;-79
2023/02/28 03:18:39;;;;;;;36.13;19.77;;;;;;;1.44;90.79;101744.09;124724;1104;104265;-80
2023/02/28 03:21:20;;;;;;;34.57;19.50;;;;;;;1.44;90.41;101738.02;124399;1105;104223;-80
2023/02/28 03:24:01;;;;;;;34.60;19.17;;;;;;;1.44;90.84;101735.44;124266;1105;104159;-80
2023/02/28 03:26:37;;;;;;;36.07;19.40;;;;;;;1.42;90.67;101740.47;124302;1109;102291;-80
2023/02/28 03:29:17;;;;;;;39.63;21.57;;;;;;;1.43;90.91;101749.13;124331;1109;102007;-80
2023/02/28 03:31:54;;;;;;;39.60;21.07;;;;;;;1.42;90.38;101755.09;124551;1105;104207;-80
2023/02/28 03:34:31;;;;;;;36.13;19.70;;;;;;;1.41;90.29;101754.16;124327;1105;104226;-80
2023/02/28 03:37:07;;;;;;;38.80;20.03;;;;;;;1.41;90.63;101764.50;124300;1105;104342;-79
2023/02/28 03:39:42;;;;;;;38.53;21.23;;;;;;;1.42;90.39;101765.44;125284;1105;103107;-80
2023/02/28 03:42:16;;;;;;;40.65;21.00;;;;;;;1.42;90.59;101762.84;124329;1104;104270;-80
2023/02/28 03:44:52;;;;;;;35.47;19.10;;;;;;;1.42;90.87;101760.26;124346;1105;102208;-80
2023/02/28 03:47:28;;;;;;;38.57;20.90;;;;;;;1.40;90.75;101760.12;125217;1105;101949;-80
2023/02/28 03:50:07;;;;;;;36.17;19.47;;;;;;;1.40;90.31;101769.53;124307;1105;102015;-80
2023/02/28 03:52:44;;;;;;;37.73;20.17;;;;;;;1.39;90.98;101776.39;125626;1105;101781;-80
2023/02/28 03:55:18;;;;;;;40.60;20.53;;;;;;;1.40;90.74;101770.47;124304;1109;104208;-80
2023/02/28 03:58:01;;;;;;;39.10;20.25;;;;;;;1.41;90.28;101766.19;125206;1104;104204;-80
2023/02/28 04:00:35;;;;;;;35.53;19.20;;;;;;;1.41;90.36;101763.60;124322;1109;102269;-79
2023/02/28 04:03:07;;;;;;;40.50;21.07;;;;;;;1.39;90.84;101763.46;125453;1104;104213;-81
2023/02/28 04:05:52;;;;;;;38.83;20.53;;;;;;;1.38;90.76;101764.22;125208;1104;104188;-80
2023/02/28 04:08:22;;;;;;;;;;;;;;;1.37;91.11;101769.25;124633;1107;104223;-80
2023/02/28 04:10:57;;;;;;;38.17;19.93;;;;;;;1.36;90.87;101760.59;124390;1105;104130;-80
2023/02/28 04:13:29;;;;;;;38.77;20.33;;;;;;;1.34;90.98;101762.13;125364;1104;104189;-80
2023/02/28 04:16:00;;;;;;;44.10;20.43;;;;;;;1.33;90.39;101759.41;125349;1104;104306;-80
2023/02/28 04:18:31;;;;;;;39.97;21.20;;;;;;;1.33;90.66;101768.06;124422;1105;104297;-80
2023/02/28 04:21:04;;;;;;;37.77;19.10;;;;;;;1.34;91.04;101774.13;124337;1105;104185;-80
2023/02/28 04:23:35;;;;;;;38.40;20.80;;;;;;;1.34;90.61;101769.89;125406;1105;104220;-80
2023/02/28 04:26:07;;;;;;;39.93;20.37;;;;;;;1.32;90.42;101771.41;124380;1105;104412;-81
2023/02/28 04:28:39;;;;;;;35.50;19.00;;;;;;;1.31;90.69;101764.44;124340;1109;102450;-80
2023/02/28 04:31:11;;;;;;;39.43;21.10;;;;;;;1.31;90.99;101777.37;125308;1105;104097;-81
2023/02/28 04:33:43;;;;;;;36.27;18.37;;;;;;;1.33;90.46;101769.75;124371;1105;104363;-80
2023/02/28 04:36:17;;;;;;;35.53;19.93;;;;;;;1.31;90.65;101768.67;124290;1109;102099;-80
2023/02/28 04:38:49;;;;;;;38.70;20.23;;;;;;;1.31;90.06;101779.02;124568;1108;104213;-81
2023/02/28 04:41:21;;;;;;;35.77;19.60;;;;;;;1.31;90.87;101781.61;124259;1108;101811;-81
2023/02/28 04:43:53;;;;;;;36.17;19.03;;;;;;;1.34;90.89;101789.66;124848;1104;102148;-80
2023/02/28 04:46:24;;;;;;;37.97;20.33;;;;;;;1.32;90.79;101791.20;124347;1108;104403;-80
2023/02/28 04:48:56;;;;;;;36.67;19.50;;;;;;;1.32;90.85;101792.09;124312;1108;104207;-80
2023/02/28 04:51:27;;;;;;;37.03;20.17;;;;;;;1.31;90.39;101792.88;125090;1106;101906;-81
2023/02/28 04:53:59;;;;;;;37.30;20.57;;;;;;;1.30;90.91;101793.64;125268;1105;104268;-80
2023/02/28 04:56:30;;;;;;;36.57;18.73;;;;;;;1.29;90.92;101799.56;124283;1109;102160;-80
2023/02/28 04:59:01;;;;;;;36.33;19.17;;;;;;;1.30;90.29;101798.81;124235;1105;102231;-79
2023/02/28 05:01:36;;;;;;;38.00;19.23;;;;;;;1.29;90.23;101799.56;124338;1106;102058;-80
2023/02/28 05:04:05;;;;;;;;;;;;;;;1.28;90.32;101818.45;124263;1106;102250;-80
2023/02/28 05:06:37;;;;;;;36.55;18.95;;;;;;;1.29;90.29;101814.19;124333;1106;101916;-79
2023/02/28 05:09:08;;;;;;;40.17;20.67;;;;;;;1.29;90.29;101822.84;124447;1105;104155;-80
2023/02/28 05:11:39;;;;;;;35.20;19.43;;;;;;;1.31;90.24;101817.81;124418;1108;104266;-80
2023/02/28 05:14:14;;;;;;;37.27;19.13;;;;;;;1.32;90.44;101825.72;124335;1106;104265;-82
2023/02/28 05:16:43;;;;;;;;;;;;;;;1.32;90.24;101828.30;124344;1105;102099;-82
2023/02/28 05:19:15;;;;;;;39.23;19.40;;;;;;;1.35;90.48;101830.28;124384;1109;102457;-82
2023/02/28 05:21:53;;;;;;;39.53;19.40;;;;;;;1.37;90.21;101833.91;124377;1109;104214;-83
2023/02/28 05:24:24;;;;;;;36.60;19.10;;;;;;;1.39;90.40;101827.22;124338;1105;104108;-82
2023/02/28 05:26:56;;;;;;;37.40;18.70;;;;;;;1.39;90.08;101829.81;124554;1105;102119;-83
2023/02/28 05:29:27;;;;;;;39.13;19.67;;;;;;;1.38;90.54;101820.22;125089;1105;104208;-78
2023/02/28 05:31:59;;;;;;;37.33;19.63;;;;;;;1.38;90.08;101820.22;124324;1105;104194;-80
2023/02/28 05:34:30;;;;;;;40.17;19.13;;;;;;;1.39;90.52;101825.54;124415;1105;104213;-80
2023/02/28 05:37:01;;;;;;;41.50;21.17;;;;;;;1.38;89.97;101825.39;124607;1105;102109;-79
2023/02/28 05:39:34;;;;;;;38.87;21.87;;;;;;;1.38;90.52;101836.64;124567;1105;103041;-78
2023/02/28 05:42:06;;;;;;;40.57;21.17;;;;;;;1.38;90.02;101830.56;124797;1106;104194;-78
2023/02/28 05:44:41;;;;;;;38.98;20.55;;;;;;;1.38;90.24;101839.22;124488;1105;104121;-81
2023/02/28 05:47:15;;;;;;;41.97;21.60;;;;;;;1.38;89.93;101846.09;125194;1104;102345;-85
2023/02/28 05:49:46;;;;;;;39.27;20.27;;;;;;;1.41;89.94;101839.52;124857;1109;102187;-82
2023/02/28 05:52:21;;;;;;;39.25;20.27;;;;;;;1.44;89.74;101846.66;126276;1105;101603;-82
2023/02/28 05:54:53;;;;;;;40.70;19.37;;;;;;;1.47;89.94;101853.81;125498;1105;104194;-82
2023/02/28 05:57:25;;;;;;;38.43;19.13;;;;;;;1.49;89.68;101853.16;125589;1105;104165;-83
2023/02/28 05:59:56;;;;;;;38.20;20.57;;;;;;;1.52;89.96;101848.28;125264;1105;101884;-82
2023/02/28 06:02:28;;;;;;;37.23;18.63;;;;;;;1.55;88.89;101863.19;124475;1105;101929;-81
2023/02/28 06:04:59;;;;;;;38.67;20.40;;;;;;;1.57;89.31;101865.17;124496;1108;104243;-80
2023/02/28 06:07:31;;;;;;;41.83;22.23;;;;;;;1.60;89.34;101861.94;124877;1109;102379;-80
2023/02/28 06:10:02;;;;;;;39.60;21.13;;;;;;;1.66;89.36;101864.20;124186;1106;104168;-80
2023/02/28 06:12:33;;;;;;;38.93;19.90;;;;;;;1.69;88.54;101860.20;124855;1105;102109;-79
2023/02/28 06:15:06;;;;;;;40.67;21.13;;;;;;;1.69;88.57;101852.44;124241;1105;104302;-77
2023/02/28 06:17:37;;;;;;;40.57;21.47;;;;;;;1.72;88.50;101852.73;124159;1109;104354;-79
2023/02/28 06:20:12;;;;;;;36.53;19.47;;;;;;;1.77;88.78;101866.99;123859;1109;104385;-78
2023/02/28 06:22:44;;;;;;;38.17;19.70;;;;;;;1.75;88.19;101857.29;125091;1107;102038;-80
2023/02/28 06:25:18;;;;;;;35.83;18.80;;;;;;;1.76;88.12;101862.61;124003;1109;104153;-76
2023/02/28 06:27:50;;;;;;;40.07;20.37;;;;;;;1.78;87.76;101861.06;123744;1105;104261;-77
2023/02/28 06:30:26;;;;;;;37.73;20.47;;;;;;;1.78;87.34;101861.06;124510;1106;103412;-77
2023/02/28 06:32:58;;;;;;;41.73;20.10;;;;;;;1.85;87.65;101859.04;124967;1105;102184;-80
2023/02/28 06:35:29;;;;;;;34.17;18.33;;;;;;;1.90;87.56;101860.36;124366;1109;101960;-77
2023/02/28 06:38:03;;;;;;;42.73;19.77;;;;;;;1.90;87.92;101865.55;124752;1108;102370;-77
2023/02/28 06:40:35;;;;;;;37.27;19.23;;;;;;;1.92;88.11;101864.03;123647;1108;104194;-74
2023/02/28 06:43:07;;;;;;;38.93;20.37;;;;;;;2.00;88.06;101864.73;123556;1106;101867;-74
2023/02/28 06:45:38;;;;;;;35.93;19.47;;;;;;;2.06;87.61;101862.70;123625;1105;102084;-73
2023/02/28 06:48:10;;;;;;;35.77;19.67;;;;;;;2.09;87.68;101863.89;123524;1105;102793;-75
2023/02/28 06:50:46;;;;;;;36.70;18.23;;;;;;;2.10;87.69;101865.72;123531;1106;104076;-76
2023/02/28 06:53:18;;;;;;;31.53;17.33;;;;;;;2.12;87.93;101868.41;123550;1106;104257;-73
2023/02/28 06:55:49;;;;;;;37.83;17.73;;;;;;;2.12;85.57;101858.98;124243;1105;104654;-73
2023/02/28 06:58:21;;;;;;;33.40;17.97;;;;;;;2.22;86.39;101867.59;123499;1106;101942;-75
2023/02/28 07:00:57;;;;;;;32.97;18.23;;;;;;;2.28;86.41;101861.28;123509;1106;104201;-76
2023/02/28 07:03:28;;;;;;;35.20;18.17;;;;;;;2.35;86.63;101862.74;123638;1105;102106;-76
2023/02/28 07:06:00;;;;;;;32.67;16.80;;;;;;;2.33;86.10;101866.88;123908;1108;104285;-75
2023/02/28 07:08:32;;;;;;;34.53;16.90;;;;;;;2.31;85.45;101858.08;124161;1109;102225;-77
2023/02/28 07:11:07;;;;;;;36.20;18.00;;;;;;;2.38;85.94;101857.84;124165;1109;102940;-78
2023/02/28 07:13:38;;;;;;;33.83;17.50;;;;;;;2.43;86.26;101874.73;124209;1105;104393;-81
2023/02/28 07:16:14;;;;;;;31.47;16.57;;;;;;;2.44;84.63;101880.81;124238;1105;104271;-78
2023/02/28 07:18:46;;;;;;;33.30;17.20;;;;;;;2.46;85.20;101880.19;123960;1109;104286;-77
2023/02/28 07:21:19;;;;;;;32.45;16.75;;;;;;;2.53;85.71;101892.00;123912;1109;102347;-78
2023/02/28 07:23:56;;;;;;;34.30;16.90;;;;;;;2.61;85.80;101882.33;125227;1105;102197;-77
2023/02/28 07:26:34;;;;;;;33.20;17.33;;;;;;;2.68;85.11;101887.27;124598;1108;101935;-78
2023/02/28 07:29:12;;;;;;;32.83;17.17;;;;;;;2.74;86.28;101886.92;123953;1106;104426;-77
2023/02/28 07:31:46;;;;;;;31.03;17.10;;;;;;;2.84;85.60;101893.06;123867;1106;104198;-77
2023/02/28 07:34:18;;;;;;;35.00;17.30;;;;;;;2.87;84.89;101888.16;123775;1105;101955;-78
2023/02/28 07:36:53;;;;;;;33.83;17.57;;;;;;;2.88;84.90;101887.39;123817;1106;104268;-75
2023/02/28 07:39:42;;;;;;;32.60;17.27;;;;;;;2.93;84.42;101892.05;123612;1108;102069;-75
2023/02/28 07:42:21;;;;;;;33.23;16.90;;;;;;;2.92;83.91;101890.25;123645;1105;102094;-75
2023/02/28 07:45:02;;;;;;;31.07;16.87;;;;;;;3.02;84.29;101903.24;123769;1108;102007;-77
2023/02/28 07:47:55;;;;;;;30.37;15.60;;;;;;;2.96;83.38;101898.44;124073;1109;102007;-77
2023/02/28 07:50:51;;;;;;;;;;;;;;;;;;;;;
2023/02/28 07:53:38;;;;;;;30.17;16.12;;;;;;;2.98;83.62;101895.98;124588;1109;101775;-76
2023/02/28 07:56:17;;;;;;;29.43;16.60;;;;;;;3.03;84.83;101895.59;124749;1106;101862;-76
2023/02/28 07:58:49;;;;;;;30.07;16.07;;;;;;;3.15;83.65;101900.06;123747;1108;104249;-76
2023/02/28 08:01:27;;;;;;;30.63;15.73;;;;;;;3.17;83.91;101909.78;123888;1105;104178;-75
2023/02/28 08:04:00;;;;;;;33.07;15.53;;;;;;;3.22;83.82;101903.30;123671;1108;102148;-76
2023/02/28 08:06:36;;;;;;;31.53;17.17;;;;;;;3.35;83.94;101905.31;123721;1109;104221;-76
2023/02/28 08:09:13;;;;;;;31.07;17.63;;;;;;;3.44;83.51;101915.56;123720;1109;102113;-75
2023/02/28 08:11:57;;;;;;;33.47;17.73;;;;;;;3.59;83.68;101923.78;123589;1106;104185;-75
2023/02/28 08:14:33;;;;;;;30.60;16.57;;;;;;;3.70;83.68;101924.70;123705;1109;102036;-75
2023/02/28 08:17:08;;;;;;;32.50;16.55;;;;;;;3.74;84.23;101930.30;123545;1105;102790;-74
2023/02/28 08:19:42;;;;;;;30.30;16.07;;;;;;;3.80;83.14;101934.19;123670;1109;104155;-75
2023/02/28 08:22:17;;;;;;;31.93;17.20;;;;;;;3.84;83.17;101928.48;123678;1107;104252;-75
2023/02/28 08:24:53;;;;;;;30.23;16.80;;;;;;;3.86;82.91;101932.11;123578;1109;110441;-75
2023/02/28 08:27:27;;;;;;;34.10;16.73;;;;;;;3.85;83.04;101933.81;123697;1105;104265;-75
2023/02/28 08:30:07;;;;;;;32.03;16.53;;;;;;;3.85;82.14;101939.01;123656;1109;102060;-75
2023/02/28 08:32:43;;;;;;;31.40;17.30;;;;;;;3.92;82.34;101930.05;123641;1109;104428;-76
2023/02/28 08:35:16;;;;;;;33.13;17.93;;;;;;;4.02;83.18;101931.73;123695;1109;104206;-77
2023/02/28 08:37:55;;;;;;;31.67;16.93;;;;;;;4.09;82.95;101934.08;123736;1109;104344;-75
2023/02/28 08:40:30;;;;;;;30.60;16.73;;;;;;;4.18;82.05;101933.95;123849;1109;103531;-78
2023/02/28 08:43:05;;;;;;;31.07;16.80;;;;;;;4.20;82.70;101930.69;124683;1109;101942;-74
2023/02/28 08:46:09;;;;;;;31.23;16.53;;;;;;;4.26;81.31;101936.40;124889;1104;101890;-78
2023/02/28 08:49:02;;;;;;;;;;;;;;;;;;;;;
2023/02/28 08:52:10;;;;;;;29.43;15.60;;;;;;;4.48;82.90;101926.09;124054;1107;102133;-79
2023/02/28 08:54:59;;;;;;;29.03;15.80;;;;;;;4.52;80.53;101932.48;123927;1109;101967;-74
2023/02/28 08:57:33;;;;;;;29.93;16.10;;;;;;;4.41;79.12;101926.39;123741;1105;104322;-74
2023/02/28 09:00:08;;;;;;;32.47;18.57;;;;;;;4.44;81.71;101923.12;123709;1109;104268;-74
2023/02/28 09:02:43;;;;;;;30.20;16.70;;;;;;;4.53;81.56;101923.88;125205;1108;102007;-77
2023/02/28 09:05:18;;;;;;;30.45;17.82;;;;;;;4.59;81.45;101924.39;125151;1105;101900;-77
2023/02/28 09:07:55;;;;;;;29.77;16.90;;;;;;;4.69;82.67;101915.68;124077;1108;104274;-76
2023/02/28 09:10:46;;;;;;;;;;;;;;;4.78;81.14;101908.59;124075;1106;101990;-76
2023/02/28 09:13:32;;;;;;;;;;;;;;;4.76;79.00;101909.28;124041;1105;104217;-79
2023/02/28 09:16:07;;;;;;;26.47;15.00;;;;;;;4.78;80.46;101910.30;123783;1105;104243;-75
2023/02/28 09:18:43;;;;;;;29.93;16.20;;;;;;;4.82;80.28;101918.48;123898;1108;102028;-75
2023/02/28 09:21:20;;;;;;;32.13;16.60;;;;;;;4.85;78.83;101904.83;124077;1105;104194;-75
2023/02/28 09:23:55;;;;;;;27.43;15.10;;;;;;;4.86;80.09;101917.02;124773;1108;103381;-75
2023/02/28 09:26:30;;;;;;;27.43;15.57;;;;;;;4.86;80.49;101915.36;123638;1109;104232;-74
2023/02/28 09:29:10;;;;;;;27.87;15.00;;;;;;;4.98;80.47;101915.42;123733;1106;104249;-75
2023/02/28 09:31:42;;;;;;;28.37;15.00;;;;;;;5.01;79.17;101920.88;123872;1108;104351;-76
2023/02/28 09:34:15;;;;;;;27.90;14.43;;;;;;;5.09;80.43;101915.39;123807;1106;104296;-75
2023/02/28 09:36:54;;;;;;;29.65;15.20;;;;;;;5.14;80.53;101914.05;123780;1109;102343;-73
2023/02/28 09:39:29;;;;;;;29.20;14.77;;;;;;;5.25;80.67;101927.92;123766;1104;102019;-75
2023/02/28 09:42:04;;;;;;;27.13;14.83;;;;;;;5.21;78.54;101917.27;123845;1109;104332;-75
2023/02/28 09:44:55;;;;;;;26.23;14.07;;;;;;;5.16;77.87;101915.11;123937;1108;102242;-77
2023/02/28 09:47:35;;;;;;;27.27;13.97;;;;;;;5.12;78.45;101911.33;124573;1108;101932;-77
2023/02/28 09:50:18;;;;;;;26.60;14.10;;;;;;;5.12;78.58;101906.12;124531;1105;104297;-78
2023/02/28 09:52:52;;;;;;;25.90;14.10;;;;;;;5.19;77.25;101910.16;124100;1109;102432;-77
2023/02/28 09:55:31;;;;;;;25.63;13.63;;;;;;;5.25;77.48;101905.44;123979;1106;104290;-76
2023/02/28 09:58:06;;;;;;;26.77;13.70;;;;;;;5.26;77.83;101898.52;124603;1109;101901;-77
2023/02/28 10:00:45;;;;;;;25.17;13.53;;;;;;;5.31;77.61;101902.39;123919;1109;104663;-76
2023/02/28 10:03:37;;;;;;;23.67;12.97;;;;;;;5.34;76.88;101900.92;123956;1106;104249;-77
2023/02/28 10:06:18;;;;;;;24.50;12.83;;;;;;;5.35;77.36;101894.95;123967;1105;101929;-77
2023/02/28 10:09:03;;;;;;;23.50;12.90;;;;;;;5.42;77.53;101893.72;124131;1108;104185;-81
2023/02/28 10:11:47;;;;;;;26.90;12.57;;;;;;;5.51;76.52;101903.97;123943;1105;104428;-77
2023/02/28 10:14:29;;;;;;;24.77;13.13;;;;;;;5.61;76.92;101901.31;123884;1109;102061;-77
2023/02/28 10:17:06;;;;;;;23.80;13.27;;;;;;;5.71;76.09;101897.72;123879;1105;104230;-76
2023/02/28 10:19:54;;;;;;;23.60;12.93;;;;;;;5.72;76.46;101897.83;123856;1106;104357;-76
2023/02/28 10:22:33;;;;;;;23.60;13.27;;;;;;;5.82;77.55;101885.52;124670;1104;104214;-78
2023/02/28 10:25:20;;;;;;;24.10;12.87;;;;;;;5.88;76.24;101897.31;124944;1108;101843;-79
2023/02/28 10:27:54;;;;;;;22.57;11.53;;;;;;;5.94;75.51;101891.67;125107;1109;101773;-78
2023/02/28 10:30:29;;;;;;;25.10;12.67;;;;;;;5.92;74.25;101883.74;124785;1108;104264;-79
2023/02/28 10:33:05;;;;;;;;;;;;;;;5.90;72.88;101887.91;124053;1109;104211;-77
2023/02/28 10:35:37;;;;;;;21.20;11.53;;;;;;;5.82;74.18;101883.81;125227;1108;102811;-77
2023/02/28 10:38:23;;;;;;;23.00;11.87;;;;;;;5.88;75.71;101884.28;124327;1106;102107;-80
2023/02/28 10:41:07;;;;;;;23.47;11.93;;;;;;;5.95;75.58;101875.23;124741;1105;102209;-77
2023/02/28 10:43:47;;;;;;;25.03;12.20;;;;;;;6.08;76.29;101872.81;124088;1105;104309;-77
2023/02/28 10:46:28;;;;;;;22.47;11.63;;;;;;;6.22;76.02;101868.64;123891;1109;104240;-79
2023/02/28 10:49:16;;;;;;;22.85;11.88;;;;;;;6.24;75.49;101863.55;124189;1109;103244;-79
2023/02/28 10:51:59;;;;;;;20.60;11.67;;;;;;;6.28;74.78;101865.60;124886;1108;104240;-80
2023/02/28 10:54:46;;;;;;;23.30;12.50;;;;;;;6.27;75.94;101862.06;124531;1106;104233;-77
2023/02/28 10:57:26;;;;;;;23.03;12.80;;;;;;;6.30;75.06;101858.80;124287;1109;102156;-77
2023/02/28 11:00:15;;;;;;;24.13;12.87;;;;;;;6.29;74.09;101852.69;124415;1108;102179;-78
2023/02/28 11:02:58;;;;;;;25.87;13.87;;;;;;;6.32;74.37;101844.16;125069;1105;102338;-80
2023/02/28 11:05:45;;;;;;;25.67;14.00;;;;;;;6.30;74.21;101846.66;124174;1109;104259;-77
2023/02/28 11:08:21;;;;;;;22.00;12.00;;;;;;;6.24;73.26;101847.91;124890;1106;101820;-78
2023/02/28 11:11:05;;;;;;;22.70;11.90;;;;;;;6.19;74.17;101844.06;124238;1105;102081;-79
2023/02/28 11:13:54;;;;;;;25.00;12.87;;;;;;;6.23;72.86;101840.87;124918;1109;104223;-78
2023/02/28 11:16:39;;;;;;;23.10;12.20;;;;;;;6.32;72.93;101841.55;124959;1109;102109;-77
2023/02/28 11:19:30;;;;;;;22.60;11.97;;;;;;;6.27;72.36;101838.61;125426;1105;101846;-79
2023/02/28 11:22:06;;;;;;;22.53;12.43;;;;;;;6.32;73.77;101836.34;124330;1105;102191;-78
2023/02/28 11:24:45;;;;;;;24.37;12.13;;;;;;;6.44;73.89;101841.56;124595;1109;103170;-78
2023/02/28 11:27:46;;;;;;;24.10;11.80;;;;;;;6.39;73.31;101835.09;124066;1109;104380;-76
2023/02/28 11:30:39;;;;;;;22.30;10.90;;;;;;;6.41;73.32;101838.73;124186;1109;104313;-79
2023/02/28 11:33:31;;;;;;;23.50;12.20;;;;;;;6.38;72.32;101838.51;124551;1109;103386;-77
2023/02/28 11:36:11;;;;;;;21.90;11.47;;;;;;;6.36;72.53;101841.00;124104;1106;104271;-77
2023/02/28 11:38:46;;;;;;;23.20;11.87;;;;;;;6.39;72.52;101833.41;124089;1105;104310;-76
2023/02/28 11:41:50;;;;;;;22.45;11.65;;;;;;;6.48;73.04;101834.09;123960;1106;104233;-78
2023/02/28 11:44:36;;;;;;;21.65;11.20;;;;;;;6.55;72.00;101837.14;125010;1107;102240;-77
2023/02/28 11:47:23;;;;;;;20.07;10.63;;;;;;;6.54;72.44;101833.61;124349;1105;101849;-77
2023/02/28 11:50:31;;;;;;;20.95;11.38;;;;;;;6.51;72.08;101817.73;125092;1108;102135;-79